Time;durP1;ratioP1;P1;durP2;ratioP2;P2;SDS_P1;SDS_P2;PMS_P1;PMS_P2;Temp;Humidity;BMP_temperature;BMP_pressure;BME280_temperature;BME280_humidity;BME280_pressure;Samples;Min_cycle;Max_cycle;Signal;HPM_P1;HPM_P2
2023/12/31 00:00:13;;;;;;;4.97;2.20;;;;;;;;;;5050093;28;20024;-80
2023/12/31 00:02:39;;;;;;;2.75;1.73;;;;;;;;;;5036482;28;20038;-80
2023/12/31 00:05:07;;;;;;;2.70;1.30;;;;;;;;;;5064813;28;20025;-81
2023/12/31 00:07:33;;;;;;;1.98;1.45;;;;;;;;;;5066113;28;20028;-79
2023/12/31 00:09:59;;;;;;;3.20;1.35;;;;;;;;;;5043350;28;20553;-78
2023/12/31 00:12:25;;;;;;;3.22;1.67;;;;;;;;;;5067836;28;20131;-81
2023/12/31 00:14:51;;;;;;;7.90;2.08;;;;;;;;;;5042857;28;20032;-79
2023/12/31 00:17:17;;;;;;;5.53;1.60;;;;;;;;;;5066498;28;20491;-79
2023/12/31 00:19:43;;;;;;;2.40;1.38;;;;;;;;;;5050797;28;20029;-81
2023/12/31 00:22:09;;;;;;;3.42;1.67;;;;;;;;;;5044551;28;20543;-80
2023/12/31 00:24:35;;;;;;;3.78;2.03;;;;;;;;;;5062086;28;20394;-80
2023/12/31 00:27:01;;;;;;;2.90;2.42;;;;;;;;;;5052281;28;20441;-81
2023/12/31 00:29:29;;;;;;;1.77;0.98;;;2.20;99.90;;;;;;5047877;28;20017;-80
2023/12/31 00:31:55;;;;;;;4.65;1.92;;;;;;;;;;5065751;28;20162;-80
2023/12/31 00:34:21;;;;;;;2.80;1.85;;;;;;;;;;5038552;28;20285;-80
2023/12/31 00:36:47;;;;;;;3.85;1.50;;;;;;;;;;5061895;28;20036;-81
2023/12/31 00:39:13;;;;;;;4.05;1.90;;;1.90;99.90;;;;;;5048489;28;20512;-80
2023/12/31 00:41:39;;;;;;;3.95;2.55;;;;;;;;;;5067428;28;20078;-80
2023/12/31 00:44:05;;;;;;;5.22;2.42;;;;;;;;;;5060422;28;20044;-80
2023/12/31 00:46:31;;;;;;;4.32;1.65;;;;;;;;;;5054235;28;20043;-80
2023/12/31 00:48:56;;;;;;;3.35;2.47;;;;;;;;;;5060292;28;20029;-78
2023/12/31 00:51:22;;;;;;;3.30;2.42;;;;;;;;;;5059528;28;20611;-80
2023/12/31 00:53:48;;;;;;;3.58;2.00;;;;;;;;;;5057847;28;20028;-78
2023/12/31 00:56:14;;;;;;;3.05;1.33;;;;;;;;;;5066614;28;20037;-81
2023/12/31 00:58:40;;;;;;;6.00;2.22;;;;;;;;;;5044765;28;20033;-81
2023/12/31 01:01:06;;;;;;;3.97;2.55;;;;;;;;;;5068762;28;20025;-81
2023/12/31 01:03:33;;;;;;;3.63;1.80;;;;;;;;;;5062804;28;20040;-80
2023/12/31 01:06:06;;;;;;;6.03;2.35;;;;;;;;;;5050815;28;20097;-80
2023/12/31 01:08:32;;;;;;;2.38;1.10;;;;;;;;;;5057691;28;20399;-81
2023/12/31 01:10:58;;;;;;;2.97;1.48;;;;;;;;;;5024661;28;20542;-81
2023/12/31 01:13:24;;;;;;;8.38;2.33;;;;;;;;;;5057693;28;20068;-79
2023/12/31 01:15:50;;;;;;;4.65;2.08;;;;;;;;;;5060315;28;20031;-80
2023/12/31 01:18:15;;;;;;;1.90;1.73;;;;;;;;;;5055136;28;20058;-80
2023/12/31 01:20:42;;;;;;;4.82;2.00;;;;;;;;;;5063877;28;20044;-80
2023/12/31 01:23:08;;;;;;;2.35;1.38;;;;;;;;;;5064445;28;20068;-81
2023/12/31 01:25:34;;;;;;;4.55;2.25;;;;;;;;;;5066778;28;20480;-80
2023/12/31 01:28:02;;;;;;;2.75;1.38;;;;;;;;;;5059874;28;20090;-81
2023/12/31 01:30:29;;;;;;;3.97;1.92;;;;;;;;;;5039952;28;20024;-80
2023/12/31 01:32:56;;;;;;;5.35;2.63;;;;;;;;;;5046226;28;20109;-80
2023/12/31 01:35:22;;;;;;;3.95;1.77;;;;;;;;;;5043709;28;20288;-81
2023/12/31 01:37:48;;;;;;;2.60;1.55;;;;;;;;;;5053062;28;20075;-80
2023/12/31 01:40:14;;;;;;;5.45;2.15;;;;;;;;;;5041870;28;20082;-80
2023/12/31 01:42:40;;;;;;;4.03;2.42;;;;;;;;;;5067554;28;20036;-80
2023/12/31 01:45:06;;;;;;;4.15;1.70;;;;;;;;;;5059434;28;20021;-79
2023/12/31 01:47:37;;;;;;;6.15;2.03;;;;;;;;;;5065023;28;20390;-80
2023/12/31 01:50:06;;;;;;;5.10;2.13;;;;;;;;;;5066432;28;20032;-81
2023/12/31 01:52:33;;;;;;;5.05;1.70;;;;;;;;;;5078136;28;20020;-80
2023/12/31 01:55:00;;;;;;;5.55;2.03;;;;;;;;;;5040911;28;20035;-80
2023/12/31 01:57:29;;;;;;;3.05;2.03;;;;;;;;;;5044643;28;20032;-81
2023/12/31 01:59:59;;;;;;;4.05;2.33;;;;;;;;;;5059223;28;20550;-81
2023/12/31 02:02:25;;;;;;;4.18;2.33;;;;;;;;;;5027877;28;20085;-80
2023/12/31 02:04:51;;;;;;;3.08;1.95;;;;;;;;;;5060640;28;21518;-81
2023/12/31 02:07:17;;;;;;;3.97;1.98;;;;;;;;;;5057392;28;20482;-79
2023/12/31 02:09:44;;;;;;;4.38;2.05;;;;;;;;;;5044741;28;20497;-81
2023/12/31 02:12:10;;;;;;;3.58;2.03;;;;;;;;;;5060748;28;20021;-80
2023/12/31 02:14:36;;;;;;;3.13;2.50;;;;;;;;;;5059599;28;20027;-78
2023/12/31 02:17:02;;;;;;;4.68;2.47;;;;;;;;;;5064835;28;20052;-80
2023/12/31 02:19:28;;;;;;;3.58;1.83;;;;;;;;;;5042398;28;20751;-81
2023/12/31 02:21:54;;;;;;;4.63;2.35;;;;;;;;;;5060387;28;20103;-80
2023/12/31 02:24:20;;;;;;;3.47;1.92;;;;;;;;;;5065839;28;20024;-79
2023/12/31 02:26:46;;;;;;;6.07;2.55;;;;;;;;;;5049149;28;20027;-80
2023/12/31 02:29:12;;;;;;;4.35;1.95;;;;;;;;;;5057624;28;20415;-79
2023/12/31 02:31:38;;;;;;;2.55;1.42;;;;;;;;;;5062044;28;20032;-81
2023/12/31 02:34:05;;;;;;;3.92;2.42;;;;;;;;;;5068859;28;20031;-81
2023/12/31 02:36:31;;;;;;;4.38;2.45;;;;;;;;;;5044677;28;20021;-81
2023/12/31 02:38:57;;;;;;;5.00;2.67;;;;;;;;;;5059980;28;20056;-80
2023/12/31 02:41:24;;;;;;;3.85;2.53;;;;;;;;;;5064590;28;20068;-81
2023/12/31 02:43:50;;;;;;;5.53;3.25;;;;;;;;;;5054256;28;20050;-79
2023/12/31 02:46:16;;;;;;;6.38;3.45;;;;;;;;;;5065527;28;20106;-80
2023/12/31 02:48:42;;;;;;;5.13;2.78;;;;;;;;;;5058490;28;20043;-81
2023/12/31 02:51:08;;;;;;;4.93;2.97;;;;;;;;;;5045829;28;20028;-80
2023/12/31 02:53:34;;;;;;;5.10;2.90;;;;;;;;;;5046856;28;20020;-81
2023/12/31 02:56:00;;;;;;;3.63;2.58;;;;;;;;;;5063535;28;20021;-80
2023/12/31 02:58:26;;;;;;;7.53;3.35;;;;;;;;;;5059452;28;20271;-79
2023/12/31 03:00:52;;;;;;;5.03;3.25;;;;;;;;;;5057337;28;20043;-81
2023/12/31 03:03:18;;;;;;;4.55;2.55;;;;;;;;;;5059598;28;20028;-80
2023/12/31 03:05:44;;;;;;;6.88;3.28;;;;;;;;;;5038179;28;20033;-80
2023/12/31 03:08:10;;;;;;;3.17;2.55;;;;;;;;;;5057298;28;20027;-81
2023/12/31 03:10:36;;;;;;;5.05;2.47;;;;;;;;;;5033403;28;20031;-80
2023/12/31 03:13:03;;;;;;;5.32;2.78;;;;;;;;;;5048352;28;20021;-80
2023/12/31 03:15:28;;;;;;;3.70;2.05;;;;;;;;;;5058388;28;20052;-81
2023/12/31 03:17:54;;;;;;;9.70;3.20;;;;;;;;;;5063781;28;20052;-80
2023/12/31 03:20:20;;;;;;;4.55;2.30;;;;;;;;;;5061995;28;20032;-80
2023/12/31 03:22:46;;;;;;;4.78;2.42;;;;;;;;;;5061365;28;20024;-80
2023/12/31 03:25:13;;;;;;;7.53;2.70;;;;;;;;;;5048331;28;20028;-80
2023/12/31 03:27:39;;;;;;;6.10;2.28;;;;;;;;;;5059480;28;20028;-80
2023/12/31 03:30:05;;;;;;;7.68;2.70;;;;;;;;;;5046390;28;20029;-80
2023/12/31 03:32:33;;;;;;;7.15;2.53;;;;;;;;;;5062664;28;20298;-80
2023/12/31 03:35:01;;;;;;;4.85;2.70;;;;;;;;;;5045579;28;20016;-79
2023/12/31 03:37:27;;;;;;;5.68;2.17;;;;;;;;;;5066170;28;20517;-78
2023/12/31 03:39:54;;;;;;;7.38;3.17;;;;;;;;;;5042002;28;20043;-81
2023/12/31 03:42:20;;;;;;;5.70;2.65;;;;;;;;;;5040594;28;20101;-81
2023/12/31 03:44:47;;;;;;;4.90;3.25;;;;;;;;;;5059608;28;20040;-79
2023/12/31 03:47:13;;;;;;;5.78;2.83;;;;;;;;;;5051002;28;20252;-80
2023/12/31 03:49:39;;;;;;;6.70;2.28;;;;;;;;;;5055972;28;20121;-81
2023/12/31 03:52:06;;;;;;;6.30;3.05;;;;;;;;;;5064571;28;20037;-80
2023/12/31 03:54:32;;;;;;;4.60;3.28;;;;;;;;;;5063415;28;20104;-80
2023/12/31 03:56:58;;;;;;;6.63;3.08;;;;;;;;;;5047622;28;20025;-80
2023/12/31 03:59:24;;;;;;;5.75;3.03;;;;;;;;;;5048905;28;20032;-82
2023/12/31 04:01:56;;;;;;;6.15;2.55;;;;;;;;;;5047316;28;20426;-79
2023/12/31 04:04:22;;;;;;;6.88;3.25;;;;;;;;;;5058332;28;20024;-80
2023/12/31 04:06:48;;;;;;;5.07;2.90;;;;;;;;;;5063267;28;20434;-80
2023/12/31 04:09:15;;;;;;;6.55;4.25;;;;;;;;;;5062776;28;20040;-81
2023/12/31 04:11:41;;;;;;;5.88;3.42;;;;;;;;;;5058742;28;20071;-80
2023/12/31 04:14:07;;;;;;;6.10;3.33;;;;;;;;;;5067128;28;20024;-80
2023/12/31 04:16:33;;;;;;;4.38;2.75;;;;;;;;;;5068498;28;20375;-80
2023/12/31 04:18:59;;;;;;;6.65;3.40;;;;;;;;;;5062079;28;20085;-81
2023/12/31 04:21:25;;;;;;;6.72;3.38;;;;;;;;;;5064614;28;20036;-80
2023/12/31 04:23:51;;;;;;;5.47;2.97;;;;;;;;;;5065887;28;20043;-79
2023/12/31 04:26:17;;;;;;;5.20;3.40;;;;;;;;;;5065211;28;20032;-80
2023/12/31 04:28:43;;;;;;;6.53;2.45;;;;;;;;;;5038533;28;20574;-80
2023/12/31 04:31:09;;;;;;;6.43;3.45;;;;;;;;;;5057437;28;20036;-80
2023/12/31 04:33:35;;;;;;;6.03;3.15;;;;;;;;;;5061062;28;20040;-80
2023/12/31 04:36:05;;;;;;;5.40;3.25;;;;;;;;;;5067703;28;20487;-81
2023/12/31 04:38:32;;;;;;;6.28;3.55;;;;;;;;;;5062289;28;20394;-81
2023/12/31 04:40:58;;;;;;;6.55;3.63;;;;;;;;;;5062412;28;21435;-81
2023/12/31 04:43:24;;;;;;;4.70;2.85;;;;;;;;;;5043926;28;20028;-80
2023/12/31 04:45:50;;;;;;;7.88;3.50;;;;;;;;;;5048962;28;20021;-79
2023/12/31 04:48:16;;;;;;;5.53;2.80;;;;;;;;;;5062081;28;20179;-79
2023/12/31 04:50:43;;;;;;;6.82;2.90;;;;;;;;;;5044810;28;20028;-80
2023/12/31 04:53:09;;;;;;;7.25;2.92;;;;;;;;;;5056671;28;20161;-81
2023/12/31 04:55:35;;;;;;;5.10;2.28;;;;;;;;;;5049757;28;20031;-81
2023/12/31 04:58:01;;;;;;;5.80;3.13;;;;;;;;;;5042913;28;20045;-80
2023/12/31 05:00:27;;;;;;;4.97;2.05;;;;;;;;;;5062858;28;20081;-80
2023/12/31 05:02:53;;;;;;;6.15;3.15;;;;;;;;;;5059296;28;20040;-80
2023/12/31 05:05:19;;;;;;;5.80;2.90;;;;;;;;;;5059824;28;20024;-80
2023/12/31 05:07:44;;;;;;;6.03;2.95;;;;;;;;;;5058254;28;20595;-81
2023/12/31 05:10:11;;;;;;;7.30;2.65;;;;;;;;;;5042118;28;20024;-81
2023/12/31 05:12:37;;;;;;;7.22;3.22;;;;;;;;;;5066654;28;20052;-79
2023/12/31 05:15:03;;;;;;;6.57;2.83;;;;;;;;;;5063150;28;20078;-78
2023/12/31 05:17:29;;;;;;;7.00;4.30;;;;;;;;;;5062413;28;20055;-80
2023/12/31 05:19:55;;;;;;;5.20;2.50;;;;;;;;;;5061403;28;20455;-79
2023/12/31 05:22:21;;;;;;;6.32;2.80;;;;;;;;;;5037899;28;20029;-80
2023/12/31 05:24:47;;;;;;;8.73;4.13;;;;;;;;;;5046781;28;20128;-80
2023/12/31 05:27:13;;;;;;;4.13;2.55;;;;;;;;;;5063820;28;20449;-80
2023/12/31 05:29:39;;;;;;;5.22;3.05;;;;;;;;;;5065943;28;20028;-81
2023/12/31 05:32:05;;;;;;;7.28;3.72;;;;;;;;;;5066121;28;20033;-81
2023/12/31 05:34:31;;;;;;;4.93;3.08;;;;;;;;;;5060867;28;20044;-81
2023/12/31 05:36:57;;;;;;;5.32;3.33;;;;;;;;;;5063821;28;20029;-80
2023/12/31 05:39:23;;;;;;;7.72;2.97;;;;;;;;;;5047321;28;20455;-79
2023/12/31 05:41:49;;;;;;;5.68;3.65;;;;;;;;;;5040857;28;20613;-79
2023/12/31 05:44:15;;;;;;;3.92;2.63;;;;;;;;;;5058459;28;20033;-80
2023/12/31 05:46:41;;;;;;;7.65;3.80;;;;;;;;;;5058589;28;20108;-80
2023/12/31 05:49:07;;;;;;;8.00;3.30;;;;;;;;;;5053556;28;20024;-78
2023/12/31 05:51:33;;;;;;;12.52;3.92;;;;;;;;;;5043456;28;20436;-80
2023/12/31 05:53:59;;;;;;;4.78;3.03;;;;;;;;;;5043393;28;20070;-80
2023/12/31 05:56:25;;;;;;;6.20;3.58;;;;;;;;;;5049240;28;20041;-81
2023/12/31 05:58:51;;;;;;;5.15;3.03;;;;;;;;;;5066536;28;20070;-80
2023/12/31 06:01:18;;;;;;;4.45;2.33;;;;;;;;;;5061469;28;20492;-80
2023/12/31 06:03:44;;;;;;;7.55;3.60;;;;;;;;;;5047628;28;20032;-80
2023/12/31 06:06:10;;;;;;;5.85;2.92;;;;;;;;;;5063945;28;20040;-78
2023/12/31 06:08:36;;;;;;;4.68;2.65;;;;;;;;;;5043104;28;20028;-79
2023/12/31 06:11:02;;;;;;;7.50;3.80;;;;;;;;;;5063068;28;20385;-80
2023/12/31 06:13:28;;;;;;;9.73;3.80;;;;;;;;;;5049968;28;20504;-78
2023/12/31 06:15:54;;;;;;;6.68;3.60;;;;;;;;;;5063500;28;20033;-79
2023/12/31 06:18:20;;;;;;;3.88;2.10;;;;;;;;;;5056008;28;20063;-79
2023/12/31 06:20:46;;;;;;;5.57;3.40;;;;;;;;;;5062825;28;20471;-79
2023/12/31 06:23:12;;;;;;;7.75;3.58;;;;;;;;;;5059638;28;20473;-78
2023/12/31 06:25:38;;;;;;;7.93;4.00;;;;;;;;;;5046070;28;20494;-80
2023/12/31 06:28:04;;;;;;;6.18;3.60;;;;;;;;;;5056787;28;20038;-80
2023/12/31 06:30:30;;;;;;;8.13;3.85;;;;;;;;;;5064151;28;20082;-79
2023/12/31 06:32:56;;;;;;;7.80;3.60;;;;;;;;;;5038566;28;21502;-79
2023/12/31 06:35:22;;;;;;;6.97;3.65;;;;;;;;;;5054747;28;20036;-80
2023/12/31 06:37:48;;;;;;;6.15;3.47;;;;;;;;;;5060329;28;20024;-78
2023/12/31 06:40:14;;;;;;;7.80;3.08;;;;;;;;;;5064787;28;20039;-80
2023/12/31 06:42:40;;;;;;;5.22;3.58;;;;;;;;;;5061850;28;20033;-79
2023/12/31 06:45:07;;;;;;;3.92;2.70;;;;;;;;;;5061433;28;20028;-81
2023/12/31 06:47:33;;;;;;;4.65;2.75;;;;;;;;;;5050210;28;20115;-80
2023/12/31 06:49:59;;;;;;;8.05;3.35;;;;;;;;;;5051058;28;20406;-80
2023/12/31 06:52:25;;;;;;;5.07;2.95;;;;;;;;;;5061965;28;20036;-80
2023/12/31 06:54:51;;;;;;;9.55;3.70;;;;;;;;;;5054737;28;20020;-79
2023/12/31 06:57:16;;;;;;;8.27;4.03;;;;;;;;;;5063275;28;20495;-78
2023/12/31 06:59:43;;;;;;;8.55;4.22;;;;;;;;;;5058817;28;20391;-80
2023/12/31 07:02:09;;;;;;;4.95;2.85;;;;;;;;;;5064323;28;20107;-80
2023/12/31 07:04:35;;;;;;;9.45;3.60;;;;;;;;;;5057915;28;20044;-78
2023/12/31 07:07:01;;;;;;;3.75;2.20;;;;;;;;;;5077855;28;20412;-80
2023/12/31 07:09:28;;;;;;;4.70;2.70;;;;;;;;;;5056192;28;20033;-79
2023/12/31 07:11:54;;;;;;;5.53;2.85;;;;;;;;;;5040744;28;20029;-79
2023/12/31 07:14:21;;;;;;;7.07;2.88;;;;;;;;;;5029398;28;20059;-80
2023/12/31 07:16:47;;;;;;;14.50;5.22;;;;;;;;;;5043099;28;20017;-77
2023/12/31 07:19:13;;;;;;;18.25;7.53;;;;;;;;;;5046688;28;20036;-78
2023/12/31 07:21:40;;;;;;;24.55;8.50;;;;;;;;;;5051858;28;20086;-79
2023/12/31 07:24:06;;;;;;;30.65;11.60;;;;;;;;;;5060815;28;20120;-80
2023/12/31 07:26:32;;;;;;;19.08;8.63;;;;;;;;;;5053885;28;20119;-80
2023/12/31 07:28:58;;;;;;;20.80;8.52;;;;;;;;;;5063955;28;20028;-79
2023/12/31 07:31:24;;;;;;;21.05;9.15;;;;;;;;;;5067015;28;20280;-79
2023/12/31 07:33:50;;;;;;;19.80;8.38;;;;;;;;;;5047996;28;20559;-78
2023/12/31 07:36:16;;;;;;;18.75;8.05;;;;;;;;;;5068129;28;20566;-78
2023/12/31 07:38:45;;;;;;;18.48;8.38;;;;;;;;;;5057029;28;20039;-80
2023/12/31 07:41:12;;;;;;;16.17;7.05;;;;;;;;;;5064086;28;20513;-80
2023/12/31 07:43:38;;;;;;;13.98;7.50;;;;;;;;;;5045799;28;20479;-79
2023/12/31 07:46:05;;;;;;;10.32;4.72;;;;;;;;;;5042298;28;20976;-78
2023/12/31 07:48:31;;;;;;;14.65;6.40;;;;;;;;;;5040174;28;20040;-79
2023/12/31 07:50:58;;;;;;;12.05;5.25;;;;;;;;;;5065751;28;20028;-80
2023/12/31 07:53:25;;;;;;;9.32;6.00;;;;;;;;;;5061389;28;20406;-80
2023/12/31 07:55:51;;;;;;;7.68;4.75;;;;;;;;;;5065573;28;20052;-79
2023/12/31 07:58:17;;;;;;;9.90;5.32;;;;;;;;;;5047776;28;20461;-80
2023/12/31 08:00:43;;;;;;;8.30;3.72;;;;;;;;;;5043714;28;20032;-78
2023/12/31 08:03:09;;;;;;;5.40;3.65;;;;;;;;;;5047958;28;20075;-78
2023/12/31 08:05:35;;;;;;;5.82;3.60;;;;;;;;;;5065959;28;20036;-79
2023/12/31 08:08:01;;;;;;;7.68;3.10;;;;;;;;;;5062406;28;20032;-80
2023/12/31 08:10:26;;;;;;;7.25;3.30;;;;;;;;;;5046884;28;20085;-79
2023/12/31 08:12:52;;;;;;;5.20;2.92;;;;;;;;;;5048386;28;20052;-80
2023/12/31 08:15:18;;;;;;;4.35;2.38;;;;;;;;;;5069274;28;20180;-80
2023/12/31 08:17:44;;;;;;;4.80;2.83;;;;;;;;;;5045891;28;20020;-78
2023/12/31 08:20:11;;;;;;;5.30;2.72;;;;;;;;;;5065370;28;20047;-79
2023/12/31 08:22:37;;;;;;;6.45;2.97;;;;;;;;;;5064933;28;20024;-79
2023/12/31 08:25:03;;;;;;;6.70;3.72;;;;;;;;;;5053746;28;20051;-79
2023/12/31 08:27:29;;;;;;;4.38;2.50;;;;;;;;;;5056794;28;20481;-79
2023/12/31 08:29:55;;;;;;;4.82;2.65;;;;;;;;;;5063204;28;20112;-81
2023/12/31 08:32:26;;;;;;;5.45;3.00;;;;;;;;;;5068720;28;20029;-80
2023/12/31 08:34:52;;;;;;;7.20;3.05;;;;;;;;;;5057695;28;20073;-79
2023/12/31 08:37:18;;;;;;;8.80;4.15;;;;;;;;;;5064362;28;20028;-79
2023/12/31 08:39:44;;;;;;;8.18;3.97;;;;;;;;;;5044815;28;20043;-79
2023/12/31 08:42:11;;;;;;;12.65;6.15;;;;;;;;;;5044379;28;20040;-78
2023/12/31 08:44:37;;;;;;;10.73;4.82;;;;;;;;;;5066998;28;20020;-80
2023/12/31 08:47:04;;;;;;;4.78;2.92;;;;;;;;;;5040342;28;20570;-79
2023/12/31 08:49:30;;;;;;;6.10;3.35;;;;;;;;;;5071527;28;20029;-81
2023/12/31 08:51:55;;;;;;;4.28;2.90;;;;;;;;;;5056736;28;20403;-80
2023/12/31 08:54:21;;;;;;;5.35;3.20;;;;;;;;;;5050314;28;21709;-78
2023/12/31 08:56:48;;;;;;;5.65;2.88;;;;;;;;;;5070873;28;20048;-82
2023/12/31 08:59:14;;;;;;;12.18;3.47;;;;;;;;;;5037108;28;20409;-82
2023/12/31 09:01:40;;;;;;;6.07;2.70;;;;;;;;;;5052657;28;20036;-80
2023/12/31 09:04:07;;;;;;;5.07;3.05;;;;;;;;;;5056666;28;20032;-80
2023/12/31 09:06:33;;;;;;;7.60;3.38;;;;;;;;;;5048751;28;20123;-79
2023/12/31 09:08:59;;;;;;;5.80;3.35;;;;;;;;;;5061716;28;20111;-77
2023/12/31 09:11:25;;;;;;;8.75;4.10;;;;;;;;;;5045193;28;20036;-79
2023/12/31 09:13:51;;;;;;;8.75;3.75;;;;;;;;;;5064477;28;20028;-78
2023/12/31 09:16:17;;;;;;;5.88;3.78;;;;;;;;;;5066653;28;20617;-79
2023/12/31 09:18:43;;;;;;;5.15;3.28;;;;;;;;;;5064144;28;20084;-78
2023/12/31 09:21:09;;;;;;;10.13;4.93;;;;;;;;;;5049217;28;20521;-78
2023/12/31 09:23:35;;;;;;;8.90;4.43;;;;;;;;;;5056992;28;20085;-78
2023/12/31 09:26:01;;;;;;;9.45;3.28;;;;;;;;;;5034092;28;20043;-79
2023/12/31 09:28:26;;;;;;;6.20;3.28;;;;;;;;;;5055297;28;20217;-79
2023/12/31 09:30:52;;;;;;;7.28;3.50;;;;;;;;;;5049218;28;20032;-78
2023/12/31 09:33:18;;;;;;;9.23;4.05;;;;;;;;;;5065008;28;20024;-80
2023/12/31 09:35:44;;;;;;;7.35;3.42;;;;;;;;;;5064628;28;20078;-79
2023/12/31 09:38:10;;;;;;;8.05;3.75;;;;;;;;;;5046469;28;20109;-79
2023/12/31 09:40:37;;;;;;;10.60;4.47;;;;;;;;;;5045256;28;20020;-80
2023/12/31 09:43:03;;;;;;;10.55;5.05;;;;;;;;;;5057879;28;20113;-80
2023/12/31 09:45:30;;;;;;;17.67;5.85;;;;;;;;;;5062003;28;20068;-80
2023/12/31 09:47:59;;;;;;;20.05;5.53;;;;;;;;;;5048545;28;20028;-78
2023/12/31 09:50:27;;;;;;;16.17;5.53;;;;;;;;;;5065534;28;20557;-79
2023/12/31 09:52:55;;;;;;;11.50;2.95;;;;;;;;;;5059082;28;20047;-78
2023/12/31 09:55:21;;;;;;;5.82;2.53;;;;;;;;;;5047490;28;20394;-80
2023/12/31 09:57:48;;;;;;;7.53;3.10;;;;;;;;;;5042040;28;20505;-78
2023/12/31 10:00:14;;;;;;;4.45;1.92;;;;;;;;;;5060304;28;20227;-80
2023/12/31 10:02:40;;;;;;;4.90;2.70;;;;;;;;;;5064673;28;20032;-79
2023/12/31 10:05:06;;;;;;;3.08;1.40;;;;;;;;;;5062717;28;20398;-79
2023/12/31 10:07:34;;;;;;;4.32;1.40;;;;;;;;;;5063692;28;20017;-79
2023/12/31 10:10:02;;;;;;;4.85;1.73;;;;;;;;;;5059942;28;20024;-77
2023/12/31 10:12:28;;;;;;;3.00;1.42;;;;;;;;;;5059192;28;20028;-80
2023/12/31 10:14:54;;;;;;;11.15;1.88;;;;;;;;;;5055275;28;20589;-79
2023/12/31 10:17:21;;;;;;;2.22;1.23;;;;;;;;;;5054011;28;20035;-80
2023/12/31 10:19:47;;;;;;;2.15;1.13;;;;;;;;;;5056224;28;20020;-79
2023/12/31 10:22:16;;;;;;;2.10;0.77;;;;;;;;;;5060542;28;20509;-79
2023/12/31 10:24:42;;;;;;;1.73;0.88;;;;;;;;;;5058449;28;20032;-77
2023/12/31 10:27:11;;;;;;;2.10;0.85;;;;;;;;;;5065038;28;20163;-78
2023/12/31 10:29:37;;;;;;;2.75;0.57;;;;;;;;;;5060127;28;20274;-81
2023/12/31 10:32:04;;;;;;;3.47;0.80;;;;;;;;;;5063285;28;20024;-81
2023/12/31 10:34:30;;;;;;;1.15;0.57;;;;;;;;;;5031812;28;20113;-79
2023/12/31 10:37:05;;;;;;;2.15;0.80;;;8.40;99.90;;;;;;5037056;28;20180;-81
2023/12/31 10:39:41;;;;;;;1.50;0.93;;;;;;;;;;5036549;28;20033;-79
2023/12/31 10:42:08;;;;;;;1.98;0.70;;;;;;;;;;5060702;28;20099;-78
2023/12/31 10:44:35;;;;;;;1.10;0.50;;;;;;;;;;5037089;28;20434;-80
2023/12/31 10:47:09;;;;;;;2.60;0.77;;;;;;;;;;5066209;28;20024;-78
2023/12/31 10:49:36;;;;;;;1.75;0.80;;;;;;;;;;5050739;28;20036;-80
2023/12/31 10:52:03;;;;;;;1.95;0.80;;;;;;;;;;5060322;28;20040;-79
2023/12/31 10:54:35;;;;;;;1.58;0.65;;;;;;;;;;5038411;28;20029;-79
2023/12/31 10:57:01;;;;;;;1.50;0.60;;;;;;;;;;5066559;28;20035;-79
2023/12/31 10:59:29;;;;;;;1.52;0.68;;;;;;;;;;5043704;28;20425;-79
2023/12/31 11:01:56;;;;;;;0.85;0.30;;;9.30;99.90;;;;;;5046879;28;20040;-79
2023/12/31 11:04:25;;;;;;;1.13;0.40;;;;;;;;;;5055962;28;20101;-79
2023/12/31 11:06:51;;;;;;;1.25;0.60;;;;;;;;;;5035978;28;20437;-79
2023/12/31 11:09:18;;;;;;;2.03;0.40;;;;;;;;;;5061225;28;20028;-79
2023/12/31 11:11:44;;;;;;;2.70;0.40;;;8.60;99.90;;;;;;5060509;28;20105;-80
2023/12/31 11:14:12;;;;;;;1.65;0.43;;;;;;;;;;5032105;28;20020;-79
2023/12/31 11:16:47;;;;;;;2.13;0.70;;;;;;;;;;5046453;28;20118;-79
2023/12/31 11:19:40;;;;;;;1.52;0.40;;;;;;;;;;5055274;28;20029;-80
2023/12/31 11:22:06;;;;;;;1.27;0.60;;;;;;;;;;5050371;28;20098;-78
2023/12/31 11:24:32;;;;;;;2.63;1.25;;;;;;;;;;5055209;28;20032;-79
2023/12/31 11:27:08;;;;;;;0.73;0.50;;;;;;;;;;5065858;28;20037;-79
2023/12/31 11:29:34;;;;;;;0.93;0.45;;;9.00;99.90;;;;;;5061130;28;20395;-79
2023/12/31 11:32:00;;;;;;;1.38;0.45;;;;;;;;;;5053407;28;20025;-78
2023/12/31 11:34:26;;;;;;;0.60;0.30;;;;;;;;;;5033087;28;20036;-81
2023/12/31 11:36:59;;;;;;;2.92;0.52;;;;;;;;;;5053114;28;20020;-78
2023/12/31 11:39:25;;;;;;;1.23;0.50;;;;;;;;;;5055497;28;20036;-78
2023/12/31 11:41:52;;;;;;;1.58;0.60;;;9.80;99.90;;;;;;5065317;28;20021;-79
2023/12/31 11:44:37;;;;;;;2.17;0.77;;;;;;;;;;5045871;28;20123;-79
2023/12/31 11:47:04;;;;;;;1.67;0.50;;;;;;;;;;5041597;28;20028;-79
2023/12/31 11:49:31;;;;;;;2.10;0.47;;;;;;;;;;5052353;28;20033;-79
2023/12/31 11:51:58;;;;;;;1.65;0.50;;;9.00;99.90;;;;;;5059245;28;20027;-80
2023/12/31 11:54:37;;;;;;;1.10;0.63;;;;;;;;;;5060578;28;20032;-79
2023/12/31 11:57:03;;;;;;;0.80;0.40;;;;;;;;;;5059414;28;20025;-79
2023/12/31 11:59:36;;;;;;;1.08;0.57;;;10.10;99.90;;;;;;5043459;28;20024;-79
2023/12/31 12:02:03;;;;;;;1.70;0.50;;;;;;;;;;5057104;28;20044;-80
2023/12/31 12:04:29;;;;;;;0.98;0.40;;;;;;;;;;5063326;28;20434;-81
2023/12/31 12:06:55;;;;;;;2.17;0.40;;;;;;;;;;5065519;28;20028;-77
2023/12/31 12:09:25;;;;;;;1.88;0.57;;;;;;;;;;5061868;28;20032;-80
2023/12/31 12:11:51;;;;;;;2.55;1.50;;;;;;;;;;5068145;28;20027;-77
2023/12/31 12:14:17;;;;;;;3.00;0.80;;;;;;;;;;5060285;28;20020;-79
2023/12/31 12:16:43;;;;;;;3.55;1.75;;;;;;;;;;5060890;28;20107;-80
2023/12/31 12:19:10;;;;;;;2.90;0.98;;;;;;;;;;5063616;28;20166;-78
2023/12/31 12:21:36;;;;;;;2.47;0.68;;;;;;;;;;5063692;28;20028;-79
2023/12/31 12:24:06;;;;;;;1.00;0.60;;;;;;;;;;5062087;28;20024;-79
2023/12/31 12:26:32;;;;;;;2.00;0.70;;;;;;;;;;5066696;28;20028;-80
2023/12/31 12:28:59;;;;;;;2.55;1.27;;;;;;;;;;5062573;28;20506;-81
2023/12/31 12:31:26;;;;;;;1.15;0.70;;;;;;;;;;5059572;28;20032;-79
2023/12/31 12:33:57;;;;;;;2.03;0.60;;;;;;;;;;5059502;28;20017;-80
2023/12/31 12:36:23;;;;;;;5.90;0.75;;;;;;;;;;5061616;28;20028;-80
2023/12/31 12:38:49;;;;;;;0.95;0.50;;;;;;;;;;5066123;28;20028;-79
2023/12/31 12:41:22;;;;;;;1.08;0.52;;;;;;;;;;5065235;28;20431;-79
2023/12/31 12:43:57;;;;;;;0.93;0.40;;;;;;;;;;5051263;28;20127;-78
2023/12/31 12:46:30;;;;;;;0.93;0.47;;;;;;;;;;5064394;28;20033;-79
2023/12/31 12:48:58;;;;;;;3.05;0.90;;;;;;;;;;5051099;28;20124;-80
2023/12/31 12:51:24;;;;;;;1.25;0.77;;;;;;;;;;5067580;28;20036;-80
2023/12/31 12:53:53;;;;;;;2.95;0.77;;;;;;;;;;5060785;28;20017;-79
2023/12/31 12:56:22;;;;;;;2.28;0.90;;;;;;;;;;5063813;28;20123;-80
2023/12/31 12:58:48;;;;;;;10.27;3.55;;;;;;;;;;5049778;28;20021;-79
2023/12/31 13:01:14;;;;;;;4.95;0.68;;;;;;;;;;5059403;28;20036;-80
2023/12/31 13:03:41;;;;;;;2.22;1.10;;;;;;;;;;5045666;28;20491;-78
2023/12/31 13:06:07;;;;;;;3.10;0.90;;;;;;;;;;5057097;28;20045;-78
2023/12/31 13:08:33;;;;;;;4.53;0.57;;;;;;;;;;5059211;28;20124;-79
2023/12/31 13:10:59;;;;;;;0.40;0.30;;;;;;;;;;5065957;28;20066;-78
2023/12/31 13:13:25;;;;;;;2.55;1.00;;;;;;;;;;5065702;28;20036;-78
2023/12/31 13:15:51;;;;;;;1.00;0.60;;;;;;;;;;5059407;28;20029;-78
2023/12/31 13:18:17;;;;;;;2.58;0.65;;;;;;;;;;5068024;28;20107;-79
2023/12/31 13:20:43;;;;;;;1.90;0.75;;;;;;;;;;5064190;28;20094;-78
2023/12/31 13:23:10;;;;;;;1.55;0.60;;;;;;;;;;5063348;28;20475;-79
2023/12/31 13:25:36;;;;;;;1.17;0.40;;;;;;;;;;5064184;28;20020;-78
2023/12/31 13:28:03;;;;;;;0.82;0.40;;;;;;;;;;5061320;28;20028;-80
2023/12/31 13:30:29;;;;;;;0.75;0.38;;;;;;;;;;5044145;28;20475;-79
2023/12/31 13:32:55;;;;;;;1.17;0.50;;;;;;;;;;5043063;28;20039;-80
2023/12/31 13:35:21;;;;;;;4.03;0.30;;;;;;;;;;5059451;28;20021;-80
2023/12/31 13:37:47;;;;;;;0.20;0.20;;;;;;;;;;5073939;28;20017;-79
2023/12/31 13:40:13;;;;;;;0.98;0.38;;;;;;;;;;5049007;28;20036;-80
2023/12/31 13:42:39;;;;;;;0.63;0.32;;;;;;;;;;5063562;28;20398;-78
2023/12/31 13:45:05;;;;;;;1.85;0.68;;;;;;;;;;5064645;28;20046;-80
2023/12/31 13:47:31;;;;;;;0.77;0.57;;;;;;;;;;5046273;28;20348;-79
2023/12/31 13:49:58;;;;;;;1.70;0.52;;;;;;;;;;5070266;28;20548;-79
2023/12/31 13:52:24;;;;;;;0.95;0.40;;;;;;;;;;5062823;28;20043;-79
2023/12/31 13:54:50;;;;;;;0.40;0.20;;;;;;;;;;5046097;28;20020;-81
2023/12/31 13:57:16;;;;;;;0.93;0.20;;;;;;;;;;5063720;28;20507;-80
2023/12/31 13:59:42;;;;;;;0.70;0.30;;;;;;;;;;5050585;28;20078;-81
2023/12/31 14:02:09;;;;;;;0.98;0.40;;;;;;;;;;5060251;28;20624;-79
2023/12/31 14:04:35;;;;;;;1.90;0.20;;;;;;;;;;5047397;28;20198;-79
2023/12/31 14:07:01;;;;;;;0.55;0.20;;;;;;;;;;5057042;28;20024;-80
2023/12/31 14:09:28;;;;;;;0.57;0.30;;;;;;;;;;5046554;28;20417;-80
2023/12/31 14:11:54;;;;;;;0.40;0.20;;;;;;;;;;5065890;28;20364;-80
2023/12/31 14:14:20;;;;;;;0.57;0.32;;;;;;;;;;5058465;28;20066;-79
2023/12/31 14:16:48;;;;;;;0.20;0.20;;;;;;;;;;5062129;28;20233;-78
2023/12/31 14:19:14;;;;;;;0.73;0.38;;;;;;;;;;5061396;28;20495;-80
2023/12/31 14:21:40;;;;;;;0.10;0.10;;;;;;;;;;5047030;28;20032;-81
2023/12/31 14:24:05;;;;;;;0.30;0.10;;;8.30;99.90;;;;;;5044544;28;20039;-79
2023/12/31 14:26:32;;;;;;;0.25;0.20;;;;;;;;;;5064423;28;20503;-78
2023/12/31 14:28:58;;;;;;;6.20;0.43;;;;;;;;;;5058333;28;20074;-78
2023/12/31 14:31:25;;;;;;;0.35;0.20;;;;;;;;;;5065004;28;20033;-80
2023/12/31 14:33:51;;;;;;;0.15;0.10;;;;;;;;;;5044347;28;20231;-80